KCOU

Columbia Regional Airport

Columbia, Missouri, USA
METAR KCOU 181254Z 12006KT 10SM CLR 01/M04 A3015 RMK AO2 SLP216 T00061039
Observed Flight Rules
Dec-18 @ 12:54 UTC (19 minutes ago) Visual Flight Rules
Wind Visibility Clouds
120° at 6 knots 10 miles
  • Clear skies
Temperatures Readings
Current 1°C / 34°F
Dewpoint -4°C / 25°F
Humidity 70%
Altimeter 30.15" Hg
Pressure 1021.6 hPa
Elevation 271
METAR KCOU 181254Z 12006KT 10SM CLR 01/M04 A3015 RMK AO2 SLP216 T00061039
Observed Flight Rules
Dec-18 @ 12:54 UTC
(19 minutes ago)
VFR
Wind Visibility
120° at 6 knots 10 miles
Clouds
  • Clear skies
Temperature Dewpoint
1°C / 34°F -4°C / 25°F
Humidity Altimeter Pressure
70% 30.15" Hg 1021.6 hPa